Flight Track Log - Related Links

Times and Time Zones

All times are in EDT time to prevent confusion due to time zone crossing. See the TAM3724 flight status page for this flight to view local times or setup timezone preferences in your user account.

Time Position Orientation Groundspeed Altitude Reporting Facility
EDT Latitude Longitude Course Direction KTS MPH feet Rate Location/Type
Sun 07:33:00 PM -21.4617 -47.0189 351° North  Level Estimated
Sun 07:34:00 PM -21.3715 -47.0338 351° North  Level Estimated
Sun 07:35:00 PM -21.2813 -47.0487 351° North  Level Estimated
Sun 07:36:00 PM -21.1910 -47.0636 351° North  Level Estimated
Sun 07:37:00 PM -21.1008 -47.0784 351° North  Level Estimated
Sun 07:38:00 PM -21.0106 -47.0933 351° North  Level Estimated
Sun 07:39:00 PM -20.9204 -47.1081 351° North  Level Estimated
Sun 07:40:00 PM -20.8301 -47.1229 351° North  Level Estimated
Sun 07:41:00 PM -20.7399 -47.1377 351° North  Level Estimated
Sun 07:42:00 PM -20.6497 -47.1524 351° North  Level Estimated
Sun 07:43:00 PM -20.5594 -47.1672 351° North  Level Estimated
Sun 07:44:00 PM -20.4692 -47.1819 351° North  Level Estimated
Sun 07:45:00 PM -20.3790 -47.1966 351° North  Level Estimated
Sun 07:46:00 PM -20.2887 -47.2113 351° North  Level Estimated
Sun 07:47:00 PM -20.1985 -47.2260 351° North  Level Estimated
Sun 07:48:00 PM -20.1082 -47.2406 351° North  Level Estimated
Sun 07:49:00 PM -20.0180 -47.2553 351° North  Level Estimated
Sun 07:50:00 PM -19.9277 -47.2699 351° North  Level Estimated
Sun 07:51:00 PM -19.8375 -47.2845 351° North  Level Estimated
Sun 07:52:00 PM -19.7472 -47.2991 351° North  Level Estimated
Sun 07:53:00 PM -19.6570 -47.3137 351° North  Level Estimated
Sun 07:54:00 PM -19.5667 -47.3282 351° North  Level Estimated
Sun 07:55:00 PM -19.4646 -47.3447 351° North  Level Estimated
Sun 07:56:00 PM -19.3625 -47.3611 351° North  Level Estimated
Sun 07:57:00 PM -19.2604 -47.3775 351° North  Level Estimated
Sun 07:58:00 PM -19.1582 -47.3939 351° North  Level Estimated
Sun 07:59:00 PM -19.0561 -47.4103 351° North  Level Estimated
Sun 08:00:00 PM -18.9540 -47.4266 351° North  Level Estimated
Sun 08:01:00 PM -18.8518 -47.4430 351° North  Level Estimated
Sun 08:02:00 PM -18.7497 -47.4593 351° North  Level Estimated
Sun 08:03:00 PM -18.6476 -47.4756 351° North  Level Estimated
Sun 08:04:00 PM -18.5454 -47.4918 351° North  Level Estimated
Sun 08:05:00 PM -18.4433 -47.5081 351° North  Level Estimated
Sun 08:06:00 PM -18.3411 -47.5243 351° North  Level Estimated
Sun 08:07:00 PM -18.2390 -47.5405 351° North  Level Estimated
Sun 08:08:00 PM -18.1369 -47.5567 351° North  Level Estimated
Sun 08:09:00 PM -18.0347 -47.5729 351° North  Level Estimated
Sun 08:10:00 PM -17.9326 -47.5891 351° North  Level Estimated
Sun 08:11:00 PM -17.8304 -47.6052 351° North  Level Estimated
Sun 08:12:00 PM -17.7283 -47.6213 351° North  Level Estimated
Sun 08:13:00 PM -17.6261 -47.6374 351° North  Level Estimated
Sun 08:14:00 PM -17.5240 -47.6535 351° North  Level Estimated
Sun 08:15:00 PM -17.4218 -47.6696 351° North  Level Estimated
Sun 08:16:00 PM -17.3197 -47.6856 351° North  Level Estimated
Sun 08:17:00 PM -17.2175 -47.7017 351° North  Level Estimated
Sun 08:18:00 PM -17.1153 -47.7177 351° North  Level Estimated
Sun 08:19:00 PM -17.0132 -47.7337 351° North  Level Estimated
Sun 08:20:00 PM -16.9110 -47.7497 351° North  Level Estimated
Sun 08:21:00 PM -16.8089 -47.7656 351° North  Level Estimated
Sun 08:22:00 PM -16.7067 -47.7816 351° North  Level Estimated
Sun 08:23:00 PM -16.6045 -47.7975 352° North  Level Estimated
Sun 08:24:00 PM -16.5024 -47.8134 352° North  Level Estimated
Sun 08:25:00 PM -16.4002 -47.8293 352° North  Level Estimated
Sun 08:26:00 PM -16.2980 -47.8452 352° North  Level Estimated
Sun 08:27:00 PM -16.1959 -47.8610 352° North  Level Estimated
Sun 08:28:00 PM -16.0937 -47.8769 352° North  Level Estimated
Sun 08:29:00 PM -15.9915 -47.8927 352° North  Level Estimated
Sun 08:30:00 PM -15.8894 -47.9085 352° North  Level Estimated
Sun 08:31:00 PM -15.8626 -47.9127 352° North  Level Estimated
Sun 08:32:00 PM -15.8626 -47.9127 128° Southeast  Level Estimated
Sun 08:33:00 PM -15.8626 -47.9127 128° Southeast  Level Estimated
Sun 08:34:00 PM -15.8626 -47.9127 128° Southeast  Level Estimated
Sun 08:35:00 PM -15.8626 -47.9127 128° Southeast  Level Estimated
Sun 08:36:00 PM -15.8626 -47.9127 128° Southeast  Level Estimated
Sun 08:37:00 PM -15.8626 -47.9127 128° Southeast  Level Estimated
Sun 08:38:00 PM -15.8626 -47.9127 128° Southeast  Level Estimated
Sun 08:39:00 PM -15.8626 -47.9127 128° Southeast  Level Estimated
Sun 08:40:00 PM -15.8626 -47.9127 128° Southeast  Level Estimated
Sun 08:41:00 PM -15.8626 -47.9127 128° Southeast  Level Estimated

Login

Don't have an account? Register now (free) for customized features, flight alerts, and more!